首页
METAR-TAF:

METAR-TAF

机场 :

Fort Riley, 堪薩斯州, 美国

纬度: 39-06N, 经度: 096-46W, 海拔: 325米

当前天气观测

该预报发布于54分钟前的23:55 UTC
风速7节,风向
温度 38°C
湿度 42%
气压 1005 hPa
能見度: 16.1公里
天空无云

METAR: KFRI 152355Z AUTO 17007KT 10SM CLR 38/23 A2969 RMK AO2 SLP038 T03770225 10391 20349 57016 PNO $

时间: 19:49 (00:49 UTC)

预报

该预报发布于4小时和49分钟前的20:00 UTC
预报有效从15日的 20点(UTC)到 17日的 02点(UTC)
风速12节,风向西南,有时为20节阵风
能见度10公里或以上
少量云层高于11000英尺
成为
从 16日的 07点(UTC)到 16日的 08点(UTC)
风速10节,风向南转西南
能见度10公里或以上
多云层高于2000英尺, 积雨云.
附近有雷暴
短暂存在
从 16日的 09点(UTC)到 16日的 10点(UTC)
风速25节,风向多变,有时为40节阵风
能見度: 4800
阴天层高于600英尺, 积雨云.
雷暴, 雨
成为
从 16日的 11点(UTC)到 16日的 12点(UTC)
风速12节,风向东转东北,有时为20节阵风
能見度: 8000
阴天层高于1000英尺
成为
从 16日的 15点(UTC)到 16日的 16点(UTC)
风速10节,风向,有时为15节阵风
能见度10公里或以上
多云层高于3000英尺
成为
从 16日的 20点(UTC)到 16日的 21点(UTC)
风速10节,风向东转东北
能见度10公里或以上
散云层高于3000英尺

TAF: KFRI 152000Z 1520/1702 23012G20KT 9999 FEW110 QNH2974INS BECMG 1607/1608 20010KT 9999 VCTS BKN020CB QNH2979INS TEMPO 1609/1610 VRB25G40KT 4800 TSRA OVC006CB BECMG 1611/1612 07012G20KT 8000 RA OVC010 QNH2981INS BECMG 1615/1616 08010G15KT 9999 NSW BKN030 QNH2983INS BECMG 1620/1621 06010KT 9999 SCT030 QNH2984INS TX40/1520Z TN27/1610Z

超过4000个机场的气象观测和天气预报(METAR&TAF报告)。

可查询的气象台以黄色和红色小点在地图上表示。

将鼠标移到小点上方,可查看气象台名称。

然后点击查看天气观测和预报。

如需切换地图:点击带黑十字的绿色按钮放大地图;点击带横线的绿色按钮缩小地图;或者点击绿色箭头查看邻近地区的地图。


METAR-TAF: